Ship Status Report: callsign OS8154

sailwx.info

Track history (hours):
 
Tides and Currents Weather Stations Pressure Air Temp Water Temp Dewpoint Dewpoint Depression Visibility Wind Speed Wind Dir Waves Ship Positions

Callsign OS8154 (name unknown)

Last reported at 2016-Sep-30 23:00 UTC. Time now 2016-Oct-01 01:33 UTC.
Position N 68°42' W 052°48'.

Barometer 1001.1 mb
Air temperature 1.5 ° C

Date/timePositionNaut miles runAvg speedWind from/ knotsBaromVisibWave heightAir tempDewpointWater temp
2016-Sep-30 23:00N 68°42' W 052°48'0 0.0 1001.1 1.5
2016-Sep-30 22:00N 68°42' W 052°48'0 0.0 1001.1 1.5
2016-Sep-30 20:00N 68°42' W 052°48'0 0.0 1001.0 2.0
2016-Sep-30 19:00N 68°42' W 052°48'0 0.0 1001.1 2.3
2016-Sep-30 17:00N 68°42' W 052°48'2 2.2 1001.2 2.0
2016-Sep-30 16:00N 68°42' W 052°54'0 0.0 1001.5 2.8
2016-Sep-30 15:00N 68°42' W 052°54'0 0.0 1001.7 2.8
2016-Sep-30 14:00N 68°42' W 052°54'0 0.0 1002.0 2.8
2016-Sep-30 13:00N 68°42' W 052°54'0 0.0 1002.4 2.3
2016-Sep-30 12:00N 68°42' W 052°54'0 0.0 1002.6 2.3
2016-Sep-30 11:00N 68°42' W 052°54'0 0.0 1003.1 2.0
2016-Sep-30 10:00N 68°42' W 052°54'0 0.0 1003.5 1.8
2016-Sep-30 09:00N 68°42' W 052°54'0 0.0 1004.1 2.3
2016-Sep-30 08:00N 68°42' W 052°54'0 0.0 1004.9 2.3
2016-Sep-30 07:00N 68°42' W 052°54'0 0.0 1005.8 2.8
2016-Sep-30 06:00N 68°42' W 052°54'0 0.0 1006.4 2.8
2016-Sep-30 04:00N 68°42' W 052°54'0 0.0 1007.9 2.5
2016-Sep-30 03:00N 68°42' W 052°54'0 0.0 1008.8 2.5
2016-Sep-30 02:00N 68°42' W 052°54'0 0.0 1009.5 2.3
2016-Sep-30 01:00N 68°42' W 052°54'0 0.0 1010.4 2.5
2016-Sep-30 00:00N 68°42' W 052°54'0 0.0 1011.1 2.5
2016-Sep-29 23:00N 68°42' W 052°54'0 0.0 1011.7 2.3
2016-Sep-29 21:00N 68°42' W 052°54'0 0.0 1012.3 2.8
2016-Sep-29 20:00N 68°42' W 052°54'0 0.0 1012.7 3.0
2016-Sep-29 19:00N 68°42' W 052°54'0 0.0 1012.8 2.8
2016-Sep-29 18:00N 68°42' W 052°54'0 0.0 1012.9 2.5
2016-Sep-29 17:00N 68°42' W 052°54'0 0.0 1012.9 2.5
2016-Sep-29 16:00N 68°42' W 052°54'0 0.0 1012.9 2.5
2016-Sep-29 15:00N 68°42' W 052°54'0 0.0 1012.8 2.3
2016-Sep-29 14:00N 68°42' W 052°54'0 0.0 1012.5 2.0
2016-Sep-29 13:00N 68°42' W 052°54'0 0.0 1012.0 2.3
2016-Sep-29 12:00N 68°42' W 052°54'0 0.0 1011.8 2.3
2016-Sep-29 11:00N 68°42' W 052°54'0 0.0 1011.5 2.3
2016-Sep-29 10:00N 68°42' W 052°54'0 0.0 1011.2 2.0
2016-Sep-29 09:00N 68°42' W 052°54'0 0.0 1010.9 2.3
2016-Sep-29 08:00N 68°42' W 052°54'0 0.0 1010.6 2.0
2016-Sep-29 07:00N 68°42' W 052°54'0 0.0 1010.3 1.8
2016-Sep-29 06:00N 68°42' W 052°54'0 0.0 1010.1 2.0
2016-Sep-29 04:00N 68°42' W 052°54'0 0.0 1009.5 1.8
2016-Sep-29 00:00N 68°42' W 052°54'0 0.0 1008.1 3.0
2016-Sep-28 23:00N 68°42' W 052°54'0 0.0 1007.5 3.0
2016-Sep-28 22:00N 68°42' W 052°54'0 0.0 1007.1 2.8
2016-Sep-28 21:00N 68°42' W 052°54'0 0.0 1006.5 3.0
2016-Sep-28 19:00N 68°42' W 052°54'0 0.0 1005.8 1.8
2016-Sep-28 18:00N 68°42' W 052°54'0 0.0 1005.7 1.5
2016-Sep-28 13:00N 68°42' W 052°54'0 0.0 1005.6 2.8
2016-Sep-28 11:00N 68°42' W 052°54'0 0.0 1005.9 1.8
2016-Sep-28 10:00N 68°42' W 052°54'0 0.0 1006.1 1.8
2016-Sep-28 09:00N 68°42' W 052°54'0 0.0 1006.6 2.0
2016-Sep-28 08:00N 68°42' W 052°54'0 0.0 1006.9 2.0
2016-Sep-28 07:00N 68°42' W 052°54'0 0.0 1007.7 2.0
2016-Sep-28 05:00N 68°42' W 052°54'0 0.0 1008.5 1.5
2016-Sep-28 04:00N 68°42' W 052°54'0 0.0 1008.9 1.3
2016-Sep-28 00:00N 68°42' W 052°54'0 0.0 1011.4 2.0
2016-Sep-27 23:00N 68°42' W 052°54'0 0.0 1011.9 2.3
2016-Sep-27 22:00N 68°42' W 052°54'0 0.0 1012.4 2.5
2016-Sep-27 21:00N 68°42' W 052°54'0 0.0 1012.7 2.3
2016-Sep-27 20:00N 68°42' W 052°54'0 0.0 1013.1 2.5
2016-Sep-27 19:00N 68°42' W 052°54'4 4.4 1013.4 2.5
2016-Sep-27 18:00N 68°42' W 052°42'9 8.9 1013.6 2.8
2016-Sep-27 17:00N 68°48' W 052°24'9 8.7 1014.0 3.8
2016-Sep-27 16:00N 68°48' W 052°00'9 8.7 1014.5 3.3
2016-Sep-27 15:00N 68°48' W 051°36'9 8.7 1015.1 3.3
2016-Sep-27 14:00N 68°48' W 051°12'0 0.0 1015.4 2.5
2016-Sep-27 13:00N 68°48' W 051°12'0 0.0 1015.7 3.5
2016-Sep-27 12:00N 68°48' W 051°12'0 0.0 1015.6 2.3
2016-Sep-27 11:00N 68°48' W 051°12'0 0.0 1015.7 0.5
2016-Sep-27 10:00N 68°48' W 051°12'0 0.0 1015.7 0.5
2016-Sep-27 09:00N 68°48' W 051°12'0 0.0 1015.6 -0.5
2016-Sep-27 08:00N 68°48' W 051°12'0 0.0 1015.6 -0.8
2016-Sep-27 06:00N 68°48' W 051°12'0 0.0 1015.1 -0.5
2016-Sep-27 05:00N 68°48' W 051°12'0 0.0 1015.2 -0.3
2016-Sep-27 04:00N 68°48' W 051°12'0 0.0 1015.2 -0.3
2016-Sep-27 02:00N 68°48' W 051°12'0 0.0 1015.4 1.0
2016-Sep-27 01:00N 68°48' W 051°12'0 0.0 1015.3 1.5
2016-Sep-26 23:00N 68°48' W 051°12'0 0.0 1015.2 1.5
2016-Sep-26 22:00N 68°48' W 051°12'0 0.0 1015.0 2.0
2016-Sep-26 20:00N 68°48' W 051°12'0 0.0 1014.7 5.3
2016-Sep-26 19:00N 68°48' W 051°12'0 0.0 1014.3 5.8
2016-Sep-26 17:00N 68°48' W 051°12'0 0.0 1014.5 6.3
2016-Sep-26 15:00N 68°48' W 051°12'0 0.0 1014.6 4.3
2016-Sep-26 14:00N 68°48' W 051°12'0 0.0 1014.2 5.0
2016-Sep-26 13:00N 68°48' W 051°12'0 0.0 1014.2 4.3
2016-Sep-26 12:00N 68°48' W 051°12'0 0.0 1014.0 2.8
2016-Sep-26 10:00N 68°48' W 051°12'0 0.0 1013.8 -0.0
2016-Sep-26 08:00N 68°48' W 051°12'0 0.0 1012.7 1.8
2016-Sep-26 07:00N 68°48' W 051°12'0 0.0 1012.3 2.5
2016-Sep-26 05:00N 68°48' W 051°12'0 0.0 1012.0 2.5
2016-Sep-26 01:00N 68°48' W 051°12'0 0.0 1011.6 2.5
2016-Sep-26 00:00N 68°48' W 051°12'0 0.0 1011.3 2.5
2016-Sep-25 23:00N 68°48' W 051°12'0 0.0 1011.0 2.0
2016-Sep-25 22:00N 68°48' W 051°12'0 0.0 1010.8 2.3
2016-Sep-25 21:00N 68°48' W 051°12'0 0.0 1010.4 2.5
2016-Sep-25 20:00N 68°48' W 051°12'0 0.0 1010.2 3.8
2016-Sep-25 19:00N 68°48' W 051°12'1212.2 1010.5 5.8
2016-Sep-25 18:00N 69°00' W 051°18'6 6.4 1010.9 4.0
2016-Sep-25 17:00N 69°06' W 051°12'6 6.0 1011.0 2.8
2016-Sep-25 16:00N 69°12' W 051°12'0 0.0 1011.4 1.5
2016-Sep-25 15:00N 69°12' W 051°12'1212.2 1011.5 1.3
2016-Sep-25 14:00N 69°24' W 051°06'9 4.4 1011.8 2.3
2016-Sep-25 12:00N 69°30' W 050°48'0 0.0 1012.3 1.0
2016-Sep-25 10:00N 69°30' W 050°48'0 0.0 1012.6 0.3
2016-Sep-25 09:00N 69°30' W 050°48'0 0.0 1012.7 0.5
2016-Sep-25 08:00N 69°30' W 050°48'0 0.0 1012.8 0.3
2016-Sep-25 07:00N 69°30' W 050°48'0 0.0 1012.9 0.5
2016-Sep-25 04:00N 69°30' W 050°48'0 0.0 1013.7 1.5
2016-Sep-25 02:00N 69°30' W 050°48'0 0.0 1014.0 1.3
2016-Sep-25 00:00N 69°30' W 050°48'0 0.0 1014.3 1.3
2016-Sep-24 23:00N 69°30' W 050°48'0 0.0 1014.3 0.5
2016-Sep-24 21:00N 69°30' W 050°48'18 9.0 1014.0 0.8
2016-Sep-24 19:00N 69°48' W 050°48'6 6.2 1013.6 -0.3
2016-Sep-24 18:00N 69°48' W 050°30'0 0.0 1013.4 -0.0
2016-Sep-24 16:00N 69°48' W 050°30'2 2.1 1013.1 -0.0
2016-Sep-24 15:00N 69°48' W 050°36'7 7.3 1013.1 0.8
2016-Sep-24 14:00N 69°42' W 050°48'6 6.4 1013.0 -0.0
2016-Sep-24 13:00N 69°36' W 050°54'2 2.1 1012.7 0.3
2016-Sep-24 12:00N 69°36' W 050°48'6 6.0 1012.5 0.3
2016-Sep-24 11:00N 69°30' W 050°48'0 0.0 1012.3 -0.3
2016-Sep-24 09:00N 69°30' W 050°48'0 0.0 1011.8 -1.5
2016-Sep-24 08:00N 69°30' W 050°48'0 0.0 1011.7 -1.3
2016-Sep-24 05:00N 69°30' W 050°48'0 0.0 1010.7 -1.0
2016-Sep-24 04:00N 69°30' W 050°48'0 0.0 1010.7 -0.8
2016-Sep-24 02:00N 69°30' W 050°48'0 0.0 1010.3 1.0
2016-Sep-24 00:00N 69°30' W 050°48'0 0.0 1009.9 1.0
2016-Sep-23 23:00N 69°30' W 050°48'0 0.0 1009.7 1.0
2016-Sep-23 22:00N 69°30' W 050°48'0 0.0 1009.4 1.8
2016-Sep-23 21:00N 69°30' W 050°48'4 4.2 1009.3 2.0
2016-Sep-23 20:00N 69°30' W 051°00'9 8.7 1009.1 1.5
2016-Sep-23 19:00N 69°36' W 051°18'6 6.4 1009.1 1.8
2016-Sep-23 18:00N 69°42' W 051°24'6 6.3 1008.9 2.8
2016-Sep-23 17:00N 69°48' W 051°30'6 6.0 1009.0 1.5
2016-Sep-23 16:00N 69°54' W 051°30'6 6.2 1009.0 1.0
2016-Sep-23 15:00N 69°54' W 051°12'9 8.6 1009.3 1.3
2016-Sep-23 14:00N 70°00' W 051°30'8 8.2 1009.5 1.5
2016-Sep-23 13:00N 70°00' W 051°54'2 2.1 1009.6 0.3
2016-Sep-23 12:00N 70°00' W 052°00'0 0.0 1009.7 1.5
2016-Sep-23 11:00N 70°00' W 052°00'0 0.0 1009.8 1.3
2016-Sep-23 10:00N 70°00' W 052°00'0 0.0 1009.8 1.3
2016-Sep-23 09:00N 70°00' W 052°00'0 0.0 1009.8 1.3
2016-Sep-23 08:00N 70°00' W 052°00'0 0.0 1009.8 1.5
2016-Sep-23 05:00N 70°00' W 052°00'0 0.0 1010.0 0.8
2016-Sep-23 04:00N 70°00' W 052°00'0 0.0 1010.3 1.0
2016-Sep-23 03:00N 70°00' W 052°00'0 0.0 1010.6 1.3
2016-Sep-23 02:00N 70°00' W 052°00'0 0.0 1011.0 1.5
2016-Sep-23 01:00N 70°00' W 052°00'0 0.0 1011.5 1.5
2016-Sep-23 00:00N 70°00' W 052°00'0 0.0 1011.7 1.0
2016-Sep-22 22:00N 70°00' W 052°00'0 0.0 1012.1 1.8
2016-Sep-22 21:00N 70°00' W 052°00'0 0.0 1012.3 2.0
2016-Sep-22 20:00N 70°00' W 052°00'0 0.0 1012.6 2.3
2016-Sep-22 19:00N 70°00' W 052°00'0 0.0 1012.6 2.0
2016-Sep-22 18:00N 70°00' W 052°00'0 0.0 1012.8 3.3
2016-Sep-22 17:00N 70°00' W 052°00'0 0.0 1013.2 3.5
2016-Sep-22 16:00N 70°00' W 052°00'0 0.0 1013.3 1.5
2016-Sep-22 15:00N 70°00' W 052°00'0 0.0 1013.9 2.3
2016-Sep-22 11:00N 70°00' W 052°00'0 0.0 1015.1 -0.8
2016-Sep-22 10:00N 70°00' W 052°00'0 0.0 1015.4 -1.8
2016-Sep-22 09:00N 70°00' W 052°00'0 0.0 1015.5 -2.5
2016-Sep-22 08:00N 70°00' W 052°00'0 0.0 1016.0 -1.3
2016-Sep-22 07:00N 70°00' W 052°00'0 0.0 1016.0 -1.8
2016-Sep-22 06:00N 70°00' W 052°00'0 0.0 1016.2 -2.3
2016-Sep-22 05:00N 70°00' W 052°00'0 0.0 1016.3 -2.8
2016-Sep-22 04:00N 70°00' W 052°00'0 0.0 1016.6 -3.5
2016-Sep-22 02:00N 70°00' W 052°00'0 0.0 1017.6 -3.0
2016-Sep-22 00:00N 70°00' W 052°00'0 0.0 1018.1 -3.0
2016-Sep-21 23:00N 70°00' W 052°00'0 0.0 1018.5 -2.0
2016-Sep-21 22:00N 70°00' W 052°00'0 0.0 1018.8 -1.8
2016-Sep-21 20:00N 70°00' W 052°00'0 0.0 1019.1 1.3
2016-Sep-21 19:00N 70°00' W 052°00'9 2.9 1019.0 0.3
2016-Sep-21 16:00N 69°54' W 051°42'20 9.9 1019.7 -1.3
2016-Sep-21 14:00N 69°36' W 051°18'19 9.5 1019.7 -1.0
2016-Sep-21 12:00N 69°18' W 051°00'0 0.0 1019.4 -1.0
2016-Sep-21 11:00N 69°18' W 051°00'0 0.0 1019.3 -0.5
2016-Sep-21 09:00N 69°18' W 051°00'0 0.0 1019.6 -3.8
2016-Sep-21 01:00N 69°18' W 051°00'0 0.0 1021.4 -3.0
2016-Sep-20 23:00N 69°18' W 051°00'   1022.1 -2.5
Track history (hours):
 
Tides and Currents Weather Stations Pressure Air Temp Water Temp Dewpoint Dewpoint Depression Visibility Wind Speed Wind Dir Waves Ship Positions

Callsign OS8154 (name unknown)

Last reported at 2016-Sep-30 23:00 UTC. Time now 2016-Oct-01 01:33 UTC.
Position N 68°42' W 052°48'.

Barometer 1001.1 mb
Air temperature 1.5 ° C

Date/timePositionNaut miles runAvg speedWind from/ knotsBaromVisibWave heightAir tempDewpointWater temp
2016-Sep-30 23:00N 68°42' W 052°48'0 0.0 1001.1 1.5
2016-Sep-30 22:00N 68°42' W 052°48'0 0.0 1001.1 1.5
2016-Sep-30 20:00N 68°42' W 052°48'0 0.0 1001.0 2.0
2016-Sep-30 19:00N 68°42' W 052°48'0 0.0 1001.1 2.3
2016-Sep-30 17:00N 68°42' W 052°48'2 2.2 1001.2 2.0
2016-Sep-30 16:00N 68°42' W 052°54'0 0.0 1001.5 2.8
2016-Sep-30 15:00N 68°42' W 052°54'0 0.0 1001.7 2.8
2016-Sep-30 14:00N 68°42' W 052°54'0 0.0 1002.0 2.8
2016-Sep-30 13:00N 68°42' W 052°54'0 0.0 1002.4 2.3
2016-Sep-30 12:00N 68°42' W 052°54'0 0.0 1002.6 2.3
2016-Sep-30 11:00N 68°42' W 052°54'0 0.0 1003.1 2.0
2016-Sep-30 10:00N 68°42' W 052°54'0 0.0 1003.5 1.8
2016-Sep-30 09:00N 68°42' W 052°54'0 0.0 1004.1 2.3
2016-Sep-30 08:00N 68°42' W 052°54'0 0.0 1004.9 2.3
2016-Sep-30 07:00N 68°42' W 052°54'0 0.0 1005.8 2.8
2016-Sep-30 06:00N 68°42' W 052°54'0 0.0 1006.4 2.8
2016-Sep-30 04:00N 68°42' W 052°54'0 0.0 1007.9 2.5
2016-Sep-30 03:00N 68°42' W 052°54'0 0.0 1008.8 2.5
2016-Sep-30 02:00N 68°42' W 052°54'0 0.0 1009.5 2.3
2016-Sep-30 01:00N 68°42' W 052°54'0 0.0 1010.4 2.5
2016-Sep-30 00:00N 68°42' W 052°54'0 0.0 1011.1 2.5
2016-Sep-29 23:00N 68°42' W 052°54'0 0.0 1011.7 2.3
2016-Sep-29 21:00N 68°42' W 052°54'0 0.0 1012.3 2.8
2016-Sep-29 20:00N 68°42' W 052°54'0 0.0 1012.7 3.0
2016-Sep-29 19:00N 68°42' W 052°54'0 0.0 1012.8 2.8
2016-Sep-29 18:00N 68°42' W 052°54'0 0.0 1012.9 2.5
2016-Sep-29 17:00N 68°42' W 052°54'0 0.0 1012.9 2.5
2016-Sep-29 16:00N 68°42' W 052°54'0 0.0 1012.9 2.5
2016-Sep-29 15:00N 68°42' W 052°54'0 0.0 1012.8 2.3
2016-Sep-29 14:00N 68°42' W 052°54'0 0.0 1012.5 2.0
2016-Sep-29 13:00N 68°42' W 052°54'0 0.0 1012.0 2.3
2016-Sep-29 12:00N 68°42' W 052°54'0 0.0 1011.8 2.3
2016-Sep-29 11:00N 68°42' W 052°54'0 0.0 1011.5 2.3
2016-Sep-29 10:00N 68°42' W 052°54'0 0.0 1011.2 2.0
2016-Sep-29 09:00N 68°42' W 052°54'0 0.0 1010.9 2.3
2016-Sep-29 08:00N 68°42' W 052°54'0 0.0 1010.6 2.0
2016-Sep-29 07:00N 68°42' W 052°54'0 0.0 1010.3 1.8
2016-Sep-29 06:00N 68°42' W 052°54'0 0.0 1010.1 2.0
2016-Sep-29 04:00N 68°42' W 052°54'0 0.0 1009.5 1.8
2016-Sep-29 00:00N 68°42' W 052°54'0 0.0 1008.1 3.0
2016-Sep-28 23:00N 68°42' W 052°54'0 0.0 1007.5 3.0
2016-Sep-28 22:00N 68°42' W 052°54'0 0.0 1007.1 2.8
2016-Sep-28 21:00N 68°42' W 052°54'0 0.0 1006.5 3.0
2016-Sep-28 19:00N 68°42' W 052°54'0 0.0 1005.8 1.8
2016-Sep-28 18:00N 68°42' W 052°54'0 0.0 1005.7 1.5
2016-Sep-28 13:00N 68°42' W 052°54'0 0.0 1005.6 2.8
2016-Sep-28 11:00N 68°42' W 052°54'0 0.0 1005.9 1.8
2016-Sep-28 10:00N 68°42' W 052°54'0 0.0 1006.1 1.8
2016-Sep-28 09:00N 68°42' W 052°54'0 0.0 1006.6 2.0
2016-Sep-28 08:00N 68°42' W 052°54'0 0.0 1006.9 2.0
2016-Sep-28 07:00N 68°42' W 052°54'0 0.0 1007.7 2.0
2016-Sep-28 05:00N 68°42' W 052°54'0 0.0 1008.5 1.5
2016-Sep-28 04:00N 68°42' W 052°54'0 0.0 1008.9 1.3
2016-Sep-28 00:00N 68°42' W 052°54'0 0.0 1011.4 2.0
2016-Sep-27 23:00N 68°42' W 052°54'0 0.0 1011.9 2.3
2016-Sep-27 22:00N 68°42' W 052°54'0 0.0 1012.4 2.5
2016-Sep-27 21:00N 68°42' W 052°54'0 0.0 1012.7 2.3
2016-Sep-27 20:00N 68°42' W 052°54'0 0.0 1013.1 2.5
2016-Sep-27 19:00N 68°42' W 052°54'4 4.4 1013.4 2.5
2016-Sep-27 18:00N 68°42' W 052°42'9 8.9 1013.6 2.8
2016-Sep-27 17:00N 68°48' W 052°24'9 8.7 1014.0 3.8
2016-Sep-27 16:00N 68°48' W 052°00'9 8.7 1014.5 3.3
2016-Sep-27 15:00N 68°48' W 051°36'9 8.7 1015.1 3.3
2016-Sep-27 14:00N 68°48' W 051°12'0 0.0 1015.4 2.5
2016-Sep-27 13:00N 68°48' W 051°12'0 0.0 1015.7 3.5
2016-Sep-27 12:00N 68°48' W 051°12'0 0.0 1015.6 2.3
2016-Sep-27 11:00N 68°48' W 051°12'0 0.0 1015.7 0.5
2016-Sep-27 10:00N 68°48' W 051°12'0 0.0 1015.7 0.5
2016-Sep-27 09:00N 68°48' W 051°12'0 0.0 1015.6 -0.5
2016-Sep-27 08:00N 68°48' W 051°12'0 0.0 1015.6 -0.8
2016-Sep-27 06:00N 68°48' W 051°12'0 0.0 1015.1 -0.5
2016-Sep-27 05:00N 68°48' W 051°12'0 0.0 1015.2 -0.3
2016-Sep-27 04:00N 68°48' W 051°12'0 0.0 1015.2 -0.3
2016-Sep-27 02:00N 68°48' W 051°12'0 0.0 1015.4 1.0
2016-Sep-27 01:00N 68°48' W 051°12'0 0.0 1015.3 1.5
2016-Sep-26 23:00N 68°48' W 051°12'0 0.0 1015.2 1.5
2016-Sep-26 22:00N 68°48' W 051°12'0 0.0 1015.0 2.0
2016-Sep-26 20:00N 68°48' W 051°12'0 0.0 1014.7 5.3
2016-Sep-26 19:00N 68°48' W 051°12'0 0.0 1014.3 5.8
2016-Sep-26 17:00N 68°48' W 051°12'0 0.0 1014.5 6.3
2016-Sep-26 15:00N 68°48' W 051°12'0 0.0 1014.6 4.3
2016-Sep-26 14:00N 68°48' W 051°12'0 0.0 1014.2 5.0
2016-Sep-26 13:00N 68°48' W 051°12'0 0.0 1014.2 4.3
2016-Sep-26 12:00N 68°48' W 051°12'0 0.0 1014.0 2.8
2016-Sep-26 10:00N 68°48' W 051°12'0 0.0 1013.8 -0.0
2016-Sep-26 08:00N 68°48' W 051°12'0 0.0 1012.7 1.8
2016-Sep-26 07:00N 68°48' W 051°12'0 0.0 1012.3 2.5
2016-Sep-26 05:00N 68°48' W 051°12'0 0.0 1012.0 2.5
2016-Sep-26 01:00N 68°48' W 051°12'0 0.0 1011.6 2.5
2016-Sep-26 00:00N 68°48' W 051°12'0 0.0 1011.3 2.5
2016-Sep-25 23:00N 68°48' W 051°12'0 0.0 1011.0 2.0
2016-Sep-25 22:00N 68°48' W 051°12'0 0.0 1010.8 2.3
2016-Sep-25 21:00N 68°48' W 051°12'0 0.0 1010.4 2.5
2016-Sep-25 20:00N 68°48' W 051°12'0 0.0 1010.2 3.8
2016-Sep-25 19:00N 68°48' W 051°12'1212.2 1010.5 5.8
2016-Sep-25 18:00N 69°00' W 051°18'6 6.4 1010.9 4.0
2016-Sep-25 17:00N 69°06' W 051°12'6 6.0 1011.0 2.8
2016-Sep-25 16:00N 69°12' W 051°12'0 0.0 1011.4 1.5
2016-Sep-25 15:00N 69°12' W 051°12'1212.2 1011.5 1.3
2016-Sep-25 14:00N 69°24' W 051°06'9 4.4 1011.8 2.3
2016-Sep-25 12:00N 69°30' W 050°48'0 0.0 1012.3 1.0
2016-Sep-25 10:00N 69°30' W 050°48'0 0.0 1012.6 0.3
2016-Sep-25 09:00N 69°30' W 050°48'0 0.0 1012.7 0.5
2016-Sep-25 08:00N 69°30' W 050°48'0 0.0 1012.8 0.3
2016-Sep-25 07:00N 69°30' W 050°48'0 0.0 1012.9 0.5
2016-Sep-25 04:00N 69°30' W 050°48'0 0.0 1013.7 1.5
2016-Sep-25 02:00N 69°30' W 050°48'0 0.0 1014.0 1.3
2016-Sep-25 00:00N 69°30' W 050°48'0 0.0 1014.3 1.3
2016-Sep-24 23:00N 69°30' W 050°48'0 0.0 1014.3 0.5
2016-Sep-24 21:00N 69°30' W 050°48'18 9.0 1014.0 0.8
2016-Sep-24 19:00N 69°48' W 050°48'6 6.2 1013.6 -0.3
2016-Sep-24 18:00N 69°48' W 050°30'0 0.0 1013.4 -0.0
2016-Sep-24 16:00N 69°48' W 050°30'2 2.1 1013.1 -0.0
2016-Sep-24 15:00N 69°48' W 050°36'7 7.3 1013.1 0.8
2016-Sep-24 14:00N 69°42' W 050°48'6 6.4 1013.0 -0.0
2016-Sep-24 13:00N 69°36' W 050°54'2 2.1 1012.7 0.3
2016-Sep-24 12:00N 69°36' W 050°48'6 6.0 1012.5 0.3
2016-Sep-24 11:00N 69°30' W 050°48'0 0.0 1012.3 -0.3
2016-Sep-24 09:00N 69°30' W 050°48'0 0.0 1011.8 -1.5
2016-Sep-24 08:00N 69°30' W 050°48'0 0.0 1011.7 -1.3
2016-Sep-24 05:00N 69°30' W 050°48'0 0.0 1010.7 -1.0
2016-Sep-24 04:00N 69°30' W 050°48'0 0.0 1010.7 -0.8
2016-Sep-24 02:00N 69°30' W 050°48'0 0.0 1010.3 1.0
2016-Sep-24 00:00N 69°30' W 050°48'0 0.0 1009.9 1.0
2016-Sep-23 23:00N 69°30' W 050°48'0 0.0 1009.7 1.0
2016-Sep-23 22:00N 69°30' W 050°48'0 0.0 1009.4 1.8
2016-Sep-23 21:00N 69°30' W 050°48'4 4.2 1009.3 2.0
2016-Sep-23 20:00N 69°30' W 051°00'9 8.7 1009.1 1.5
2016-Sep-23 19:00N 69°36' W 051°18'6 6.4 1009.1 1.8
2016-Sep-23 18:00N 69°42' W 051°24'6 6.3 1008.9 2.8
2016-Sep-23 17:00N 69°48' W 051°30'6 6.0 1009.0 1.5
2016-Sep-23 16:00N 69°54' W 051°30'6 6.2 1009.0 1.0
2016-Sep-23 15:00N 69°54' W 051°12'9 8.6 1009.3 1.3
2016-Sep-23 14:00N 70°00' W 051°30'8 8.2 1009.5 1.5
2016-Sep-23 13:00N 70°00' W 051°54'2 2.1 1009.6 0.3
2016-Sep-23 12:00N 70°00' W 052°00'0 0.0 1009.7 1.5
2016-Sep-23 11:00N 70°00' W 052°00'0 0.0 1009.8 1.3
2016-Sep-23 10:00N 70°00' W 052°00'0 0.0 1009.8 1.3
2016-Sep-23 09:00N 70°00' W 052°00'0 0.0 1009.8 1.3
2016-Sep-23 08:00N 70°00' W 052°00'0 0.0 1009.8 1.5
2016-Sep-23 05:00N 70°00' W 052°00'0 0.0 1010.0 0.8
2016-Sep-23 04:00N 70°00' W 052°00'0 0.0 1010.3 1.0
2016-Sep-23 03:00N 70°00' W 052°00'0 0.0 1010.6 1.3
2016-Sep-23 02:00N 70°00' W 052°00'0 0.0 1011.0 1.5
2016-Sep-23 01:00N 70°00' W 052°00'0 0.0 1011.5 1.5
2016-Sep-23 00:00N 70°00' W 052°00'0 0.0 1011.7 1.0
2016-Sep-22 22:00N 70°00' W 052°00'0 0.0 1012.1 1.8
2016-Sep-22 21:00N 70°00' W 052°00'0 0.0 1012.3 2.0
2016-Sep-22 20:00N 70°00' W 052°00'0 0.0 1012.6 2.3
2016-Sep-22 19:00N 70°00' W 052°00'0 0.0 1012.6 2.0
2016-Sep-22 18:00N 70°00' W 052°00'0 0.0 1012.8 3.3
2016-Sep-22 17:00N 70°00' W 052°00'0 0.0 1013.2 3.5
2016-Sep-22 16:00N 70°00' W 052°00'0 0.0 1013.3 1.5
2016-Sep-22 15:00N 70°00' W 052°00'0 0.0 1013.9 2.3
2016-Sep-22 11:00N 70°00' W 052°00'0 0.0 1015.1 -0.8
2016-Sep-22 10:00N 70°00' W 052°00'0 0.0 1015.4 -1.8
2016-Sep-22 09:00N 70°00' W 052°00'0 0.0 1015.5 -2.5
2016-Sep-22 08:00N 70°00' W 052°00'0 0.0 1016.0 -1.3
2016-Sep-22 07:00N 70°00' W 052°00'0 0.0 1016.0 -1.8
2016-Sep-22 06:00N 70°00' W 052°00'0 0.0 1016.2 -2.3
2016-Sep-22 05:00N 70°00' W 052°00'0 0.0 1016.3 -2.8
2016-Sep-22 04:00N 70°00' W 052°00'0 0.0 1016.6 -3.5
2016-Sep-22 02:00N 70°00' W 052°00'0 0.0 1017.6 -3.0
2016-Sep-22 00:00N 70°00' W 052°00'0 0.0 1018.1 -3.0
2016-Sep-21 23:00N 70°00' W 052°00'0 0.0 1018.5 -2.0
2016-Sep-21 22:00N 70°00' W 052°00'0 0.0 1018.8 -1.8
2016-Sep-21 20:00N 70°00' W 052°00'0 0.0 1019.1 1.3
2016-Sep-21 19:00N 70°00' W 052°00'9 2.9 1019.0 0.3
2016-Sep-21 16:00N 69°54' W 051°42'20 9.9 1019.7 -1.3
2016-Sep-21 14:00N 69°36' W 051°18'19 9.5 1019.7 -1.0
2016-Sep-21 12:00N 69°18' W 051°00'0 0.0 1019.4 -1.0
2016-Sep-21 11:00N 69°18' W 051°00'0 0.0 1019.3 -0.5
2016-Sep-21 09:00N 69°18' W 051°00'0 0.0 1019.6 -3.8
2016-Sep-21 01:00N 69°18' W 051°00'0 0.0 1021.4 -3.0
2016-Sep-20 23:00N 69°18' W 051°00'   1022.1 -2.5

Dump ship's entire track history